createdAt,value
2019-01-23T00:03:50.497Z,10.23
2019-01-23T00:08:55.398Z,8.63
2019-01-23T00:14:00.277Z,7.97
2019-01-23T00:19:05.217Z,8.77
2019-01-23T00:24:10.038Z,10.53
2019-01-23T00:29:15.166Z,9.77
2019-01-23T00:34:20.057Z,10.17
2019-01-23T00:39:24.855Z,8.60
2019-01-23T00:44:29.958Z,9.37
2019-01-23T00:49:34.880Z,8.30
2019-01-23T00:54:39.729Z,8.97
2019-01-23T00:59:44.774Z,9.77
2019-01-23T01:04:49.927Z,7.43
2019-01-23T01:09:54.730Z,8.53
2019-01-23T01:14:59.854Z,7.73
2019-01-23T01:20:06.683Z,10.50
2019-01-23T01:25:13.869Z,8.40
2019-01-23T01:30:21.027Z,7.90
2019-01-23T01:35:26.097Z,8.33
2019-01-23T01:40:31.277Z,7.40
2019-01-23T01:45:36.244Z,8.00
2019-01-23T01:50:42.065Z,6.17
2019-01-23T01:55:46.869Z,7.23
2019-01-23T02:00:51.776Z,8.27
2019-01-23T02:05:56.939Z,7.53
2019-01-23T02:11:01.765Z,7.60
2019-01-23T02:16:06.722Z,8.17
2019-01-23T02:21:12.023Z,8.17
2019-01-23T02:26:17.042Z,7.47
2019-01-23T02:31:21.880Z,7.60
2019-01-23T02:36:26.703Z,8.97
2019-01-23T02:41:31.602Z,7.10
2019-01-23T02:46:36.424Z,8.13
2019-01-23T02:51:41.585Z,7.87
2019-01-23T02:56:46.665Z,6.27
2019-01-23T03:01:51.750Z,7.40
2019-01-23T03:06:56.697Z,7.80
2019-01-23T03:12:02.038Z,7.60
2019-01-23T03:17:07.064Z,8.00
2019-01-23T03:22:11.918Z,7.90
2019-01-23T03:27:16.870Z,7.17
2019-01-23T03:32:22.035Z,8.10
2019-01-23T03:37:27.119Z,6.53
2019-01-23T03:42:32.378Z,6.83
2019-01-23T03:47:37.625Z,7.83
2019-01-23T03:52:42.625Z,7.13
2019-01-23T03:57:47.601Z,6.30
2019-01-23T04:02:53.544Z,5.67
2019-01-23T04:07:58.407Z,8.00
2019-01-23T04:13:03.183Z,8.93
2019-01-23T04:18:08.082Z,6.93
2019-01-23T04:23:12.907Z,7.60
2019-01-23T04:28:17.958Z,8.17
2019-01-23T04:33:22.722Z,7.53
2019-01-23T04:38:27.665Z,6.67
2019-01-23T04:43:32.879Z,7.13
2019-01-23T04:48:38.104Z,9.77
2019-01-23T04:53:45.014Z,7.27
2019-01-23T04:58:49.898Z,9.63
2019-01-23T05:03:55.411Z,7.63
2019-01-23T05:09:00.656Z,8.90
2019-01-23T05:14:07.237Z,8.23
2019-01-23T05:19:12.156Z,7.90
2019-01-23T05:24:17.050Z,11.53
2019-01-23T05:29:21.841Z,12.27
2019-01-23T05:34:26.663Z,10.90
2019-01-23T05:39:31.505Z,10.57
2019-01-23T05:44:36.361Z,11.10
2019-01-23T05:49:41.441Z,10.80
2019-01-23T05:54:46.538Z,9.97
2019-01-23T05:59:51.322Z,10.30
2019-01-23T06:04:56.521Z,9.30
2019-01-23T06:10:01.519Z,13.23
2019-01-23T06:15:07.112Z,11.37
2019-01-23T06:20:14.318Z,13.70
2019-01-23T06:25:19.569Z,16.33
2019-01-23T06:30:26.399Z,10.73
2019-01-23T06:35:31.182Z,11.87
2019-01-23T06:40:36.758Z,13.23
2019-01-23T06:45:41.952Z,13.57
2019-01-23T06:50:46.771Z,18.67
2019-01-23T06:55:51.518Z,10.90
2019-01-23T07:00:56.601Z,14.10
2019-01-23T07:06:01.733Z,15.37
2019-01-23T07:11:06.710Z,15.20
2019-01-23T07:16:11.521Z,13.47
2019-01-23T07:21:16.836Z,12.67
2019-01-23T07:26:22.138Z,12.23
2019-01-23T07:31:27.376Z,11.47
2019-01-23T07:36:32.347Z,11.93
2019-01-23T07:41:37.423Z,13.27
2019-01-23T07:46:43.010Z,14.53
2019-01-23T07:51:47.811Z,12.23
2019-01-23T07:56:52.917Z,12.17
2019-01-23T08:01:58.179Z,15.53
2019-01-23T08:07:03.146Z,11.83
2019-01-23T08:12:10.812Z,12.13
2019-01-23T08:17:15.001Z,11.27
2019-01-23T08:22:19.768Z,13.07
2019-01-23T08:27:24.930Z,11.13
2019-01-23T08:32:30.200Z,13.10
2019-01-23T08:37:35.271Z,14.13
2019-01-23T08:42:40.146Z,12.23
2019-01-23T08:47:45.418Z,13.70
2019-01-23T08:52:50.687Z,11.77
2019-01-23T08:57:57.177Z,11.23
2019-01-23T09:03:02.106Z,13.63
2019-01-23T09:08:09.270Z,15.87
2019-01-23T09:13:14.245Z,14.83
2019-01-23T09:18:19.084Z,12.97
2019-01-23T09:23:24.108Z,11.30
2019-01-23T09:28:30.020Z,9.20
2019-01-23T09:33:49.463Z,12.10
2019-01-23T09:39:20.062Z,9.70
2019-01-23T09:45:12.889Z,11.63
2019-01-23T09:50:57.396Z,9.63
2019-01-23T09:56:03.382Z,10.90
2019-01-23T10:01:08.553Z,8.40
2019-01-23T10:06:16.625Z,12.47
2019-01-23T10:11:21.374Z,14.90
2019-01-23T10:16:26.247Z,14.47
2019-01-23T10:21:31.177Z,11.83
2019-01-23T10:26:36.072Z,10.57
2019-01-23T10:31:41.009Z,12.17
2019-01-23T10:36:45.894Z,8.40
2019-01-23T10:41:50.855Z,19.63
2019-01-23T10:46:55.677Z,11.40
2019-01-23T10:52:00.459Z,14.63
2019-01-23T10:57:05.686Z,12.27
2019-01-23T11:02:10.670Z,14.03
2019-01-23T11:07:16.552Z,11.87
2019-01-23T11:12:25.828Z,14.97
2019-01-23T11:17:39.830Z,9.40
2019-01-23T11:22:48.240Z,9.47
2019-01-23T11:27:53.504Z,10.53
2019-01-23T11:33:00.525Z,13.07
2019-01-23T11:38:10.397Z,14.03
2019-01-23T11:43:15.349Z,11.10
2019-01-23T11:48:22.145Z,10.57
2019-01-23T11:53:27.360Z,9.60
2019-01-23T11:58:35.350Z,12.63
2019-01-23T12:03:41.254Z,15.27
2019-01-23T12:08:46.089Z,11.67
2019-01-23T12:13:51.407Z,14.53
2019-01-23T12:18:59.577Z,17.83
2019-01-23T12:24:04.583Z,13.37
2019-01-23T12:29:09.668Z,13.23
2019-01-23T12:34:14.647Z,10.70
2019-01-23T12:39:19.938Z,13.97
2019-01-23T12:45:12.199Z,15.97
2019-01-23T12:50:51.476Z,14.77
2019-01-23T12:56:14.599Z,11.17
2019-01-23T13:01:47.160Z,7.87
2019-01-23T13:07:01.148Z,8.27
2019-01-23T13:12:05.540Z,12.00
2019-01-23T13:17:18.629Z,9.07
2019-01-23T13:22:26.726Z,8.00
2019-01-23T13:27:57.303Z,8.93
2019-01-23T13:33:02.352Z,8.63
2019-01-23T13:38:15.059Z,10.60
2019-01-23T13:43:22.432Z,12.53
2019-01-23T13:48:30.839Z,9.80
2019-01-23T13:53:35.834Z,9.67
2019-01-23T13:58:42.204Z,10.17
2019-01-23T14:03:47.249Z,9.10
2019-01-23T14:08:52.053Z,9.67
2019-01-23T14:13:57.064Z,11.40
2019-01-23T14:19:03.736Z,10.90
2019-01-23T14:24:11.121Z,9.87
2019-01-23T14:29:16.047Z,8.97
2019-01-23T14:34:20.873Z,7.93
2019-01-23T14:39:25.997Z,7.77
2019-01-23T14:44:31.250Z,6.83
2019-01-23T14:49:36.040Z,6.83
2019-01-23T14:54:40.815Z,6.57
2019-01-23T14:59:46.058Z,7.37
2019-01-23T15:04:51.318Z,6.83
2019-01-23T15:09:59.333Z,8.03
2019-01-23T15:15:04.870Z,9.10
2019-01-23T15:20:25.559Z,6.43
2019-01-23T15:25:33.644Z,7.33
2019-01-23T15:30:44.611Z,7.70
2019-01-23T15:35:52.235Z,7.30
2019-01-23T15:40:56.357Z,6.37
2019-01-23T15:46:01.319Z,7.07
2019-01-23T15:51:07.154Z,6.67
2019-01-23T15:56:12.032Z,6.77
2019-01-23T16:01:17.234Z,6.83
2019-01-23T16:06:25.833Z,7.23
2019-01-23T16:11:31.133Z,7.03
2019-01-23T16:16:36.547Z,7.40
2019-01-23T16:21:45.563Z,7.07
2019-01-23T16:26:50.582Z,6.80
2019-01-23T16:31:55.633Z,7.80
2019-01-23T16:37:00.859Z,7.87
2019-01-23T16:42:06.176Z,7.07
2019-01-23T16:47:11.276Z,5.53
2019-01-23T16:52:16.667Z,7.57
2019-01-23T16:57:22.889Z,7.10
2019-01-23T17:02:28.110Z,6.77
2019-01-23T17:07:33.518Z,6.83
2019-01-23T17:12:38.822Z,7.40
2019-01-23T17:17:44.174Z,8.53
2019-01-23T17:22:54.723Z,8.43
2019-01-23T17:28:00.091Z,7.67
2019-01-23T17:33:05.467Z,6.10
2019-01-23T17:38:10.757Z,7.40
2019-01-23T17:43:15.889Z,7.07
2019-01-23T17:48:21.156Z,7.17
2019-01-23T17:53:26.153Z,6.57
2019-01-23T17:58:31.173Z,6.23
2019-01-23T18:03:36.230Z,7.43
2019-01-23T18:08:41.633Z,7.47
2019-01-23T18:13:46.552Z,7.03
2019-01-23T18:18:54.523Z,7.07
2019-01-23T18:23:59.565Z,7.83
2019-01-23T18:29:30.458Z,7.50
2019-01-23T18:35:15.214Z,7.93
2019-01-23T18:40:45.081Z,7.43
2019-01-23T18:46:24.173Z,7.23
2019-01-23T18:51:52.054Z,8.20
2019-01-23T18:56:56.909Z,7.23
2019-01-23T19:02:02.168Z,8.37
2019-01-23T19:07:06.978Z,10.00
2019-01-23T19:12:12.143Z,7.47
2019-01-23T19:17:16.988Z,8.53
2019-01-23T19:22:22.089Z,8.67
2019-01-23T19:27:28.188Z,8.33
2019-01-23T19:33:48.323Z,7.40
2019-01-23T19:38:55.815Z,8.87
2019-01-23T19:44:04.168Z,9.10
2019-01-23T19:49:10.236Z,8.50
2019-01-23T19:54:14.979Z,6.93
2019-01-23T21:30:49.279Z,13.40
2019-01-23T21:59:15.317Z,7.80
